createdAt,value
2019-02-21T00:00:05.102Z,11.57
2019-02-21T00:02:35.537Z,12.23
2019-02-21T00:05:04.082Z,11.83
2019-02-21T00:07:31.457Z,10.93
2019-02-21T00:09:58.995Z,12.57
2019-02-21T00:12:26.416Z,11.73
2019-02-21T00:14:53.796Z,12.77
2019-02-21T00:19:57.558Z,11.70
2019-02-21T00:22:24.970Z,11.90
2019-02-21T00:27:08.865Z,12.30
2019-02-21T00:29:36.195Z,12.40
2019-02-21T00:32:03.529Z,12.97
2019-02-21T00:34:31.098Z,11.70
2019-02-21T00:36:58.626Z,12.07
2019-02-21T00:39:26.110Z,11.17
2019-02-21T00:41:53.461Z,11.90
2019-02-21T00:44:20.821Z,12.17
2019-02-21T00:46:48.445Z,11.43
2019-02-21T00:49:15.835Z,11.63
2019-02-21T00:51:43.315Z,11.23
2019-02-21T00:54:10.819Z,10.47
2019-02-21T00:56:38.583Z,10.67
2019-02-21T00:59:06.025Z,11.17
2019-02-21T01:01:33.395Z,11.27
2019-02-21T01:04:01.062Z,10.23
2019-02-21T01:06:28.455Z,10.23
2019-02-21T01:08:55.905Z,10.83
2019-02-21T01:11:23.193Z,10.33
2019-02-21T01:13:50.611Z,10.87
2019-02-21T01:16:17.920Z,10.53
2019-02-21T01:18:45.300Z,10.03
2019-02-21T01:21:12.676Z,10.30
2019-02-21T01:23:40.201Z,10.67
2019-02-21T01:26:07.765Z,10.67
2019-02-21T01:28:35.238Z,10.27
2019-02-21T01:31:03.155Z,10.33
2019-02-21T01:33:30.663Z,9.40
2019-02-21T01:35:58.035Z,9.37
2019-02-21T01:38:25.440Z,9.60
2019-02-21T01:40:52.702Z,9.47
2019-02-21T01:43:20.048Z,9.23
2019-02-21T01:45:47.752Z,9.63
2019-02-21T01:48:15.535Z,9.53
2019-02-21T01:50:42.924Z,9.67
2019-02-21T01:53:10.199Z,9.57
2019-02-21T01:55:37.770Z,9.83
2019-02-21T01:58:05.331Z,9.50
2019-02-21T02:00:32.771Z,9.27
2019-02-21T02:02:59.970Z,9.33
2019-02-21T02:05:27.433Z,9.20
2019-02-21T02:07:54.678Z,9.60
2019-02-21T02:10:22.062Z,9.30
2019-02-21T02:12:49.420Z,9.33
2019-02-21T02:15:16.796Z,9.53
2019-02-21T02:17:44.236Z,9.53
2019-02-21T02:20:11.608Z,9.10
2019-02-21T02:22:38.961Z,8.93
2019-02-21T02:25:06.448Z,10.13
2019-02-21T02:27:33.964Z,8.97
2019-02-21T02:30:01.503Z,8.63
2019-02-21T02:32:28.974Z,9.37
2019-02-21T02:34:56.414Z,9.40
2019-02-21T02:37:23.910Z,8.97
2019-02-21T02:39:51.387Z,9.03
2019-02-21T02:42:18.876Z,8.90
2019-02-21T02:44:46.362Z,8.73
2019-02-21T02:47:13.698Z,9.53
2019-02-21T02:49:41.074Z,8.80
2019-02-21T02:52:08.496Z,8.57
2019-02-21T02:54:35.965Z,9.33
2019-02-21T02:57:03.480Z,8.90
2019-02-21T02:59:40.290Z,9.30
2019-02-21T03:02:00.228Z,8.73
2019-02-21T03:04:27.627Z,9.17
2019-02-21T03:06:54.971Z,8.97
2019-02-21T03:09:22.443Z,9.30
2019-02-21T03:11:51.885Z,8.00
2019-02-21T03:14:19.023Z,9.90
2019-02-21T03:16:46.439Z,9.40
2019-02-21T03:19:13.887Z,8.77
2019-02-21T03:21:41.429Z,9.30
2019-02-21T03:24:08.878Z,9.13
2019-02-21T03:26:36.507Z,9.23
2019-02-21T03:29:03.954Z,8.87
2019-02-21T03:31:31.368Z,9.30
2019-02-21T03:33:58.721Z,9.03
2019-02-21T03:36:26.250Z,8.77
2019-02-21T03:38:53.690Z,9.20
2019-02-21T03:41:21.091Z,9.53
2019-02-21T03:43:48.448Z,9.63
2019-02-21T03:46:16.152Z,9.37
2019-02-21T03:48:43.509Z,10.17
2019-02-21T03:51:10.934Z,9.70
2019-02-21T03:53:38.557Z,9.00
2019-02-21T03:56:06.052Z,8.80
2019-02-21T03:58:33.467Z,8.60
2019-02-21T04:01:00.714Z,8.97
2019-02-21T04:03:28.193Z,9.43
2019-02-21T04:05:55.599Z,9.13
2019-02-21T04:08:22.939Z,9.50
2019-02-21T04:10:50.367Z,9.70
2019-02-21T04:13:17.805Z,9.40
2019-02-21T04:15:45.302Z,9.77
2019-02-21T04:18:12.715Z,10.77
2019-02-21T04:20:40.009Z,9.60
2019-02-21T04:23:07.496Z,9.60
2019-02-21T04:25:34.879Z,9.83
2019-02-21T04:28:02.256Z,10.00
2019-02-21T04:30:29.685Z,11.00
2019-02-21T04:32:56.965Z,10.03
2019-02-21T04:35:24.298Z,10.77
2019-02-21T04:37:51.733Z,10.10
2019-02-21T04:40:19.141Z,10.33
2019-02-21T04:42:46.571Z,10.80
2019-02-21T04:45:14.079Z,10.00
2019-02-21T04:47:41.467Z,9.83
2019-02-21T04:50:08.901Z,10.67
2019-02-21T04:52:36.345Z,10.57
2019-02-21T04:55:03.856Z,10.73
2019-02-21T04:57:31.182Z,10.73
2019-02-21T04:59:58.568Z,10.73
2019-02-21T05:02:28.871Z,10.40
2019-02-21T05:04:55.033Z,9.83
2019-02-21T05:07:22.327Z,10.30
2019-02-21T05:09:57.599Z,10.53
2019-02-21T05:12:18.828Z,10.93
2019-02-21T05:14:46.341Z,10.60
2019-02-21T05:17:13.824Z,10.93
2019-02-21T05:19:41.110Z,10.57
2019-02-21T05:22:08.484Z,9.83
2019-02-21T05:24:38.408Z,10.70
2019-02-21T05:27:11.212Z,10.00
2019-02-21T05:29:38.678Z,10.03
2019-02-21T05:32:43.812Z,9.87
2019-02-21T05:35:31.430Z,9.20
2019-02-21T05:38:30.679Z,10.30
2019-02-21T05:41:17.510Z,9.20
2019-02-21T05:44:05.526Z,10.27
2019-02-21T05:46:51.235Z,9.67
2019-02-21T05:49:27.184Z,10.60
2019-02-21T05:52:23.123Z,10.50
2019-02-21T05:55:16.068Z,10.60
2019-02-21T05:57:55.197Z,9.70
2019-02-21T06:00:48.284Z,10.17
2019-02-21T06:03:37.654Z,10.17
2019-02-21T06:06:27.775Z,10.30
2019-02-21T06:09:05.071Z,9.87
2019-02-21T06:11:43.278Z,10.80
2019-02-21T06:14:32.795Z,9.93
2019-02-21T06:17:22.506Z,10.20
2019-02-21T06:19:54.776Z,10.03
2019-02-21T06:22:37.856Z,11.00
2019-02-21T06:25:14.377Z,10.87
2019-02-21T06:27:47.614Z,10.30
2019-02-21T06:30:29.238Z,10.63
2019-02-21T06:33:04.445Z,10.37
2019-02-21T06:35:26.740Z,10.87
2019-02-21T06:37:54.081Z,11.27
2019-02-21T06:40:21.505Z,11.03
2019-02-21T06:42:48.798Z,11.17
2019-02-21T06:45:18.139Z,10.83
2019-02-21T06:47:45.363Z,11.07
2019-02-21T06:50:14.358Z,11.23
2019-02-21T06:52:42.008Z,10.97
2019-02-21T06:55:09.351Z,11.37
2019-02-21T06:57:36.769Z,11.30
2019-02-21T07:00:04.220Z,10.10
2019-02-21T07:02:31.523Z,10.47
2019-02-21T07:04:58.912Z,10.10
2019-02-21T07:07:26.363Z,11.20
2019-02-21T07:09:53.639Z,11.07
2019-02-21T07:12:20.969Z,11.17
2019-02-21T07:14:48.402Z,10.90
2019-02-21T07:17:15.684Z,10.60
2019-02-21T07:19:43.147Z,9.50
2019-02-21T07:22:17.842Z,9.53
2019-02-21T07:24:43.858Z,9.70
2019-02-21T07:27:11.279Z,9.20
2019-02-21T07:29:38.892Z,10.10
2019-02-21T07:32:06.684Z,9.43
2019-02-21T07:34:34.089Z,9.33
2019-02-21T07:37:01.411Z,9.43
2019-02-21T07:39:35.507Z,8.67
2019-02-21T07:41:57.920Z,9.03
2019-02-21T07:44:25.270Z,9.10
2019-02-21T07:46:53.514Z,9.50
2019-02-21T07:51:48.829Z,12.37
2019-02-21T07:54:16.312Z,9.90
2019-02-21T07:56:43.694Z,9.23
2019-02-21T07:59:12.149Z,8.90
2019-02-21T08:01:39.700Z,8.80
2019-02-21T08:04:07.183Z,8.63
2019-02-21T08:06:34.682Z,9.07
2019-02-21T08:09:02.045Z,8.77
2019-02-21T08:11:29.459Z,9.37
2019-02-21T08:13:56.957Z,8.60
2019-02-21T08:16:24.483Z,8.50
2019-02-21T08:18:51.846Z,8.67
2019-02-21T08:21:19.338Z,8.33
2019-02-21T08:24:44.191Z,8.87
2019-02-21T08:27:11.623Z,8.37
2019-02-21T08:29:39.116Z,8.37
2019-02-21T08:32:06.688Z,8.80
2019-02-21T08:34:40.652Z,8.87
2019-02-21T08:37:08.841Z,8.97
2019-02-21T08:39:36.292Z,9.07
2019-02-21T08:42:03.721Z,9.13
2019-02-21T08:44:31.139Z,9.60
2019-02-21T08:46:58.364Z,9.33
2019-02-21T08:51:30.842Z,10.03
2019-02-21T08:53:58.264Z,10.07
2019-02-21T08:56:25.615Z,10.83
2019-02-21T08:58:53.064Z,11.13
2019-02-21T09:01:20.372Z,10.57
2019-02-21T09:03:47.760Z,11.53
2019-02-21T09:06:15.593Z,11.23
2019-02-21T09:08:42.958Z,11.17
2019-02-21T09:11:10.337Z,11.50
2019-02-21T09:13:37.801Z,11.40
2019-02-21T09:16:05.129Z,10.97
2019-02-21T09:18:32.574Z,11.73
2019-02-21T09:21:00.060Z,11.70
2019-02-21T09:23:27.569Z,11.00
2019-02-21T09:25:55.052Z,11.77
2019-02-21T09:28:22.382Z,11.23
2019-02-21T09:30:49.734Z,11.47
2019-02-21T09:33:20.257Z,11.33
2019-02-21T09:35:46.329Z,11.00
2019-02-21T09:38:13.834Z,10.43
2019-02-21T09:40:42.736Z,11.23
2019-02-21T09:43:10.349Z,11.13
2019-02-21T09:47:50.065Z,10.27
2019-02-21T09:50:17.592Z,10.27
2019-02-21T09:52:45.059Z,10.27
2019-02-21T09:55:14.356Z,9.83
2019-02-21T09:57:41.827Z,9.53
2019-02-21T10:00:16.941Z,9.27
2019-02-21T10:02:44.563Z,8.83
2019-02-21T10:05:12.324Z,9.13
2019-02-21T10:07:39.837Z,9.20
2019-02-21T10:10:10.455Z,9.50
2019-02-21T10:12:37.757Z,9.23
2019-02-21T10:15:06.013Z,9.00
2019-02-21T10:17:33.472Z,9.63
2019-02-21T10:20:00.827Z,9.17
2019-02-21T10:22:28.187Z,9.90
2019-02-21T10:24:57.049Z,8.30
2019-02-21T10:27:24.569Z,8.60
2019-02-21T10:29:51.977Z,8.80
2019-02-21T10:32:19.544Z,8.00
2019-02-21T10:34:46.937Z,8.43
2019-02-21T10:37:14.293Z,8.23
2019-02-21T10:39:41.872Z,7.80
2019-02-21T10:42:09.305Z,7.90
2019-02-21T10:44:36.729Z,7.77
2019-02-21T10:47:04.216Z,7.70
2019-02-21T10:49:31.609Z,8.33
2019-02-21T10:51:58.973Z,7.33
2019-02-21T10:54:26.351Z,6.90
2019-02-21T10:56:54.171Z,7.67
2019-02-21T10:59:21.609Z,7.47
2019-02-21T11:01:48.863Z,8.50
2019-02-21T11:04:16.205Z,8.13
2019-02-21T11:06:43.603Z,8.00
2019-02-21T11:09:21.590Z,7.93
2019-02-21T11:11:49.373Z,8.10
2019-02-21T11:14:16.764Z,7.87
2019-02-21T11:16:44.445Z,8.00
2019-02-21T11:19:12.214Z,8.73
2019-02-21T11:21:39.518Z,8.83
2019-02-21T11:24:06.924Z,8.40
2019-02-21T11:26:34.495Z,8.23
2019-02-21T11:29:22.223Z,9.13
2019-02-21T11:32:00.891Z,9.23
2019-02-21T11:34:33.606Z,9.07
2019-02-21T11:37:03.155Z,8.80
2019-02-21T11:39:51.399Z,9.50
2019-02-21T11:42:18.844Z,9.27
2019-02-21T11:44:49.558Z,9.43
2019-02-21T11:47:54.188Z,9.07
2019-02-21T11:50:23.625Z,9.23
2019-02-21T11:52:51.049Z,9.27
2019-02-21T11:55:19.911Z,9.23
2019-02-21T11:57:48.275Z,9.40
2019-02-21T12:00:20.590Z,9.63
2019-02-21T12:02:47.885Z,9.50
2019-02-21T12:05:31.296Z,9.60
2019-02-21T12:08:03.735Z,9.47
2019-02-21T12:10:31.133Z,9.53
2019-02-21T12:12:58.590Z,9.60
2019-02-21T12:17:54.394Z,9.90
2019-02-21T12:20:21.806Z,9.37
2019-02-21T12:22:49.259Z,9.50
2019-02-21T12:25:16.689Z,10.10
2019-02-21T12:27:44.129Z,9.87
2019-02-21T12:30:13.884Z,10.27
2019-02-21T12:32:41.518Z,9.57
2019-02-21T12:35:09.542Z,10.13
2019-02-21T12:37:37.154Z,10.50
2019-02-21T12:40:05.773Z,9.57
2019-02-21T12:42:33.190Z,9.80
2019-02-21T12:45:01.712Z,9.83
2019-02-21T12:47:29.193Z,10.00
2019-02-21T12:49:56.584Z,9.47
2019-02-21T12:52:23.898Z,10.33
2019-02-21T12:54:51.951Z,10.43
2019-02-21T12:57:19.514Z,10.47
2019-02-21T12:59:49.455Z,10.73
2019-02-21T13:02:18.108Z,10.23
2019-02-21T13:04:48.283Z,10.27
2019-02-21T13:07:16.146Z,10.70
2019-02-21T13:09:43.495Z,10.73
2019-02-21T13:12:10.915Z,10.57
2019-02-21T13:14:38.799Z,10.13
2019-02-21T13:17:06.314Z,10.20
2019-02-21T13:19:33.676Z,10.90
2019-02-21T13:22:01.081Z,10.90
2019-02-21T13:24:28.607Z,10.77
2019-02-21T13:26:58.530Z,10.87
2019-02-21T13:29:26.089Z,11.07
2019-02-21T13:31:53.555Z,10.87
2019-02-21T13:34:21.042Z,11.63
2019-02-21T13:36:48.409Z,10.30
2019-02-21T13:39:15.990Z,10.50
2019-02-21T13:41:43.497Z,11.20
2019-02-21T13:44:11.198Z,11.33
2019-02-21T13:46:41.039Z,10.90
2019-02-21T13:49:07.963Z,11.63
2019-02-21T13:51:35.175Z,10.17
2019-02-21T13:54:02.474Z,9.67
2019-02-21T13:56:29.919Z,9.93
2019-02-21T13:58:57.306Z,9.63
2019-02-21T14:01:24.911Z,9.10
2019-02-21T14:03:52.318Z,8.83
2019-02-21T14:06:19.872Z,8.77
2019-02-21T14:08:47.233Z,8.80
2019-02-21T14:11:14.799Z,8.53
2019-02-21T14:13:42.440Z,8.10
2019-02-21T14:16:10.045Z,7.77
2019-02-21T14:18:37.486Z,6.97
2019-02-21T14:21:05.034Z,6.50
2019-02-21T14:23:32.397Z,6.70
2019-02-21T14:25:59.738Z,6.57
2019-02-21T14:28:27.274Z,6.60
2019-02-21T14:30:54.584Z,6.57
2019-02-21T14:33:22.609Z,6.47
2019-02-21T14:35:49.823Z,6.20
2019-02-21T14:38:27.546Z,5.90
2019-02-21T14:40:46.490Z,6.40
2019-02-21T14:43:16.948Z,5.90
2019-02-21T14:45:43.322Z,5.30
2019-02-21T14:48:10.719Z,5.60
2019-02-21T14:50:38.249Z,5.13
2019-02-21T14:53:06.000Z,5.83
2019-02-21T14:55:33.414Z,5.20
2019-02-21T14:58:00.725Z,5.40
2019-02-21T15:00:28.102Z,5.53
2019-02-21T15:02:57.739Z,5.60
2019-02-21T15:05:25.850Z,5.33
2019-02-21T15:07:53.192Z,5.50
2019-02-21T15:10:22.232Z,5.67
2019-02-21T15:12:49.656Z,5.90
2019-02-21T15:15:37.253Z,6.90
2019-02-21T15:18:08.253Z,6.87
2019-02-21T15:20:37.054Z,6.10
2019-02-21T15:24:08.340Z,6.33
2019-02-21T15:26:35.776Z,6.17
2019-02-21T15:29:03.220Z,5.50
2019-02-21T15:31:30.677Z,5.50
2019-02-21T15:33:58.132Z,5.63
2019-02-21T15:36:25.792Z,5.90
2019-02-21T15:38:53.288Z,5.50
2019-02-21T15:41:20.760Z,5.70
2019-02-21T15:43:48.162Z,5.43
2019-02-21T15:46:35.688Z,5.33
2019-02-21T15:49:03.220Z,5.30
2019-02-21T15:51:57.451Z,5.10
2019-02-21T15:54:24.866Z,6.00
2019-02-21T15:56:52.337Z,5.57
2019-02-21T15:59:21.721Z,5.90
2019-02-21T16:01:49.186Z,5.83
2019-02-21T16:04:16.654Z,6.00
2019-02-21T16:06:51.040Z,5.63
2019-02-21T16:09:16.552Z,6.13
2019-02-21T16:11:43.183Z,5.70
2019-02-21T16:14:10.705Z,5.80
2019-02-21T16:16:38.438Z,6.37
2019-02-21T16:19:05.964Z,5.40
2019-02-21T16:21:33.632Z,6.07
2019-02-21T16:24:00.917Z,6.07
2019-02-21T16:26:28.533Z,6.50
2019-02-21T16:28:55.967Z,5.87
2019-02-21T16:31:23.615Z,5.53
2019-02-21T16:33:50.944Z,5.80
2019-02-21T16:36:18.317Z,5.93
2019-02-21T16:38:45.685Z,6.10
2019-02-21T16:41:13.337Z,6.37
2019-02-21T16:43:40.772Z,6.03
2019-02-21T16:46:10.790Z,5.67
2019-02-21T16:48:38.276Z,6.13
2019-02-21T16:51:05.687Z,5.77
2019-02-21T16:53:33.128Z,5.50
2019-02-21T16:56:00.465Z,5.90
2019-02-21T16:58:27.939Z,6.23
2019-02-21T17:00:56.870Z,6.23
2019-02-21T17:03:24.662Z,6.03
2019-02-21T17:05:52.081Z,5.80
2019-02-21T17:08:19.906Z,6.27
2019-02-21T17:10:50.556Z,6.47
2019-02-21T17:13:17.995Z,6.03
2019-02-21T17:15:45.494Z,6.27
2019-02-21T17:18:13.294Z,6.03
2019-02-21T17:20:40.731Z,5.60
2019-02-21T17:23:08.249Z,6.03
2019-02-21T17:25:35.710Z,6.10
2019-02-21T17:28:03.799Z,6.33
2019-02-21T17:30:31.178Z,6.37
2019-02-21T17:32:58.604Z,6.23
2019-02-21T17:35:26.212Z,6.60
2019-02-21T17:37:53.897Z,6.23
2019-02-21T17:40:21.342Z,6.20
2019-02-21T17:42:48.769Z,6.93
2019-02-21T17:45:16.216Z,7.93
2019-02-21T17:47:43.595Z,8.10
2019-02-21T17:50:11.323Z,8.53
2019-02-21T17:52:38.727Z,9.97
2019-02-21T17:55:06.300Z,11.10
2019-02-21T17:57:33.734Z,9.97
2019-02-21T18:00:03.277Z,8.30
2019-02-21T18:02:31.094Z,7.73
2019-02-21T18:04:58.705Z,7.50
2019-02-21T18:07:36.021Z,7.63
2019-02-21T18:09:55.425Z,7.33
2019-02-21T18:12:22.855Z,7.43
2019-02-21T18:14:50.140Z,6.63
2019-02-21T18:17:17.562Z,7.33
2019-02-21T18:19:44.880Z,7.50
2019-02-21T18:22:12.275Z,7.43
2019-02-21T18:24:39.628Z,7.20
2019-02-21T18:27:07.214Z,7.40
2019-02-21T18:29:34.534Z,8.00
2019-02-21T18:32:01.995Z,7.70
2019-02-21T18:34:29.337Z,7.67
2019-02-21T18:36:56.687Z,8.23
2019-02-21T18:39:24.202Z,7.87
2019-02-21T18:41:51.651Z,7.93
2019-02-21T18:44:18.952Z,7.33
2019-02-21T18:46:46.500Z,8.03
2019-02-21T18:49:14.036Z,8.23
2019-02-21T18:51:41.363Z,7.73
2019-02-21T18:54:08.944Z,7.77
2019-02-21T18:56:36.323Z,7.93
2019-02-21T18:59:03.718Z,8.07
2019-02-21T19:01:31.162Z,8.13
2019-02-21T19:03:59.549Z,7.83
2019-02-21T19:06:27.047Z,7.97
2019-02-21T19:08:54.436Z,8.70
2019-02-21T19:11:21.939Z,9.33
2019-02-21T19:13:50.633Z,8.03
2019-02-21T19:16:18.187Z,9.07
2019-02-21T19:18:45.559Z,8.80
2019-02-21T19:21:13.269Z,8.77
2019-02-21T19:23:40.816Z,9.27
2019-02-21T19:26:08.325Z,9.10
2019-02-21T19:28:37.167Z,9.20
2019-02-21T19:31:10.931Z,9.40
2019-02-21T19:33:38.605Z,9.87
2019-02-21T19:36:05.925Z,9.77
2019-02-21T19:38:52.919Z,9.70
2019-02-21T19:41:20.318Z,10.00
2019-02-21T19:43:47.672Z,10.87
2019-02-21T19:46:15.212Z,10.33
2019-02-21T19:48:42.659Z,10.40
2019-02-21T19:51:10.214Z,10.50
2019-02-21T19:53:37.685Z,10.33
2019-02-21T19:56:05.173Z,10.90
2019-02-21T19:58:35.508Z,10.97
2019-02-21T20:01:03.366Z,10.60
2019-02-21T20:03:36.564Z,11.43
2019-02-21T20:06:04.148Z,11.00
2019-02-21T20:10:55.377Z,11.07
2019-02-21T20:13:22.915Z,11.73
2019-02-21T20:16:04.654Z,11.63
2019-02-21T20:18:32.120Z,11.20
2019-02-21T20:20:59.824Z,12.33
2019-02-21T20:23:27.527Z,11.40
2019-02-21T20:25:55.479Z,11.47
2019-02-21T20:28:22.896Z,11.50
2019-02-21T20:30:50.320Z,11.80
2019-02-21T20:33:17.716Z,11.77
2019-02-21T20:35:45.162Z,11.20
2019-02-21T20:38:13.220Z,11.77
2019-02-21T20:40:40.749Z,12.50
2019-02-21T20:43:08.539Z,11.87
2019-02-21T20:45:38.745Z,12.30
2019-02-21T20:48:06.172Z,12.10
2019-02-21T20:50:33.731Z,11.87
2019-02-21T20:53:02.992Z,12.20
2019-02-21T20:55:30.486Z,12.00
2019-02-21T20:57:58.103Z,12.67
2019-02-21T21:00:27.330Z,12.50
2019-02-21T21:02:55.978Z,12.80
2019-02-21T21:05:23.614Z,12.20
2019-02-21T21:07:51.294Z,11.53
2019-02-21T21:10:26.412Z,11.83
2019-02-21T21:12:55.081Z,12.17
2019-02-21T21:15:25.855Z,10.97
2019-02-21T21:17:57.463Z,11.30
2019-02-21T21:20:26.063Z,11.87
2019-02-21T21:22:59.582Z,11.60
2019-02-21T21:25:27.899Z,12.17
2019-02-21T21:27:59.545Z,11.53
2019-02-21T21:30:28.323Z,11.27
2019-02-21T21:33:02.050Z,11.27
2019-02-21T21:35:37.445Z,11.13
2019-02-21T21:38:06.188Z,11.90
2019-02-21T21:40:41.047Z,11.63
2019-02-21T21:43:08.539Z,11.77
2019-02-21T21:45:56.104Z,12.10
2019-02-21T21:48:26.742Z,12.03
2019-02-21T21:50:55.339Z,12.03
2019-02-21T21:53:24.905Z,11.67
2019-02-21T21:55:52.352Z,11.97
2019-02-21T21:58:19.776Z,12.67
2019-02-21T22:00:47.245Z,11.37
2019-02-21T22:03:14.729Z,11.23
2019-02-21T22:05:42.161Z,11.50
2019-02-21T22:08:10.086Z,11.53
2019-02-21T22:10:39.235Z,11.63
2019-02-21T22:13:06.694Z,10.87
2019-02-21T22:15:34.747Z,10.97
2019-02-21T22:18:05.064Z,10.43
2019-02-21T22:20:32.660Z,10.13
2019-02-21T22:23:02.132Z,10.43
2019-02-21T22:25:29.536Z,10.87
2019-02-21T22:27:57.422Z,10.10
2019-02-21T22:30:25.115Z,10.70
2019-02-21T22:32:53.065Z,11.13
2019-02-21T22:35:20.704Z,11.23
2019-02-21T22:37:48.206Z,10.63
2019-02-21T22:40:15.576Z,11.07
2019-02-21T22:42:43.561Z,10.53
2019-02-21T22:45:11.251Z,10.50
2019-02-21T22:47:38.739Z,11.53
2019-02-21T22:50:08.503Z,11.20
2019-02-21T22:52:37.094Z,10.57
2019-02-21T22:55:09.921Z,11.50
2019-02-21T22:57:33.906Z,11.87
2019-02-21T23:00:04.117Z,11.20
2019-02-21T23:02:33.034Z,11.77
2019-02-21T23:05:30.674Z,10.87
2019-02-21T23:08:13.083Z,10.53
2019-02-21T23:10:45.214Z,11.20
2019-02-21T23:13:12.656Z,10.87
2019-02-21T23:20:07.466Z,11.27
2019-02-21T23:22:34.921Z,10.93
2019-02-21T23:25:02.471Z,11.23
2019-02-21T23:27:29.786Z,10.93
2019-02-21T23:29:57.242Z,11.63
2019-02-21T23:32:24.716Z,11.23
2019-02-21T23:34:53.032Z,10.83
2019-02-21T23:37:20.400Z,11.23
2019-02-21T23:39:47.895Z,10.70
2019-02-21T23:42:18.145Z,10.57
2019-02-21T23:44:45.803Z,10.80
2019-02-21T23:47:13.418Z,11.00
2019-02-21T23:49:40.683Z,10.83
2019-02-21T23:52:08.007Z,11.07
2019-02-21T23:54:35.436Z,10.37
2019-02-21T23:57:02.820Z,10.33
2019-02-21T23:59:30.269Z,10.67
